Time;durP1;ratioP1;P1;durP2;ratioP2;P2;SDS_P1;SDS_P2;PMS_P1;PMS_P2;Temp;Humidity;BMP_temperature;BMP_pressure;BME280_temperature;BME280_humidity;BME280_pressure;Samples;Min_cycle;Max_cycle;Signal;HPM_P1;HPM_P2
2022/10/03 00:01:31;;;;;;;3.00;1.20;;;18.50;93.00;;;;;;5000075;28;20847;-86
2022/10/03 00:04:28;;;;;;;1.42;1.20;;;18.40;94.70;;;;;;5014865;28;20402;-86
2022/10/03 00:07:22;;;;;;;2.60;1.23;;;18.50;93.00;;;;;;5014361;28;20386;-87
2022/10/03 00:09:58;;;;;;;0.82;0.80;;;18.40;94.60;;;;;;5017925;28;20721;-86
2022/10/03 00:12:52;;;;;;;2.70;1.03;;;18.00;91.00;;;;;;5076677;28;20785;-85
2022/10/03 00:15:53;;;;;;;1.70;0.90;;;17.80;91.30;;;;;;5076023;28;20467;-84
2022/10/03 00:18:44;;;;;;;1.02;0.90;;;17.60;91.20;;;;;;5075673;28;20396;-85
2022/10/03 00:21:29;;;;;;;3.40;1.25;;;17.70;92.40;;;;;;5075300;28;20366;-85
2022/10/03 00:24:15;;;;;;;2.05;0.80;;;17.60;90.90;;;;;;5075213;28;20378;-86
2022/10/03 00:27:15;;;;;;;2.30;0.88;;;17.50;90.80;;;;;;5076784;28;20374;-84
2022/10/03 00:33:13;;;;;;;1.67;0.80;;;17.40;91.60;;;;;;5074695;28;20365;-85
2022/10/03 00:35:48;;;;;;;1.10;0.82;;;17.40;91.00;;;;;;5074757;28;20718;-86
2022/10/03 00:38:32;;;;;;;1.13;0.80;;;17.40;91.00;;;;;;5074368;28;20453;-83
2022/10/03 00:41:11;;;;;;;1.90;1.00;;;17.20;91.30;;;;;;5074276;28;20400;-83
2022/10/03 00:43:49;;;;;;;1.92;0.80;;;17.10;91.20;;;;;;5072714;28;20851;-87
2022/10/03 00:46:37;;;;;;;1.67;0.90;;;17.30;91.60;;;;;;5073779;28;20382;-89
2022/10/03 00:49:22;;;;;;;1.30;0.90;;;17.70;90.30;;;;;;5074900;28;20366;-84
2022/10/03 00:52:06;;;;;;;1.77;0.80;;;17.90;89.60;;;;;;5074556;28;20384;-87
2022/10/03 00:54:45;;;;;;;2.33;1.00;;;18.10;88.40;;;;;;5074210;28;20384;-87
2022/10/03 00:57:30;;;;;;;2.88;1.20;;;18.30;86.70;;;;;;5074118;28;20453;-87
2022/10/03 01:00:25;;;;;;;1.50;1.10;;;18.40;84.90;;;;;;5073940;28;20373;-86
2022/10/03 01:02:52;;;;;;;1.30;0.90;;;18.40;85.30;;;;;;5073424;28;20405;-86
2022/10/03 01:05:38;;;;;;;2.90;1.08;;;18.80;82.70;;;;;;5074305;28;20846;-85
2022/10/03 01:08:35;;;;;;;1.88;1.00;;;19.00;82.10;;;;;;5074295;28;20382;-92
2022/10/03 01:11:30;;;;;;;2.33;1.10;;;19.60;80.70;;;;;;5055925;28;20873;-85
2022/10/03 01:14:17;;;;;;;1.52;1.10;;;20.10;77.60;;;;;;5073759;28;20431;-84
2022/10/03 01:17:09;;;;;;;2.00;1.10;;;20.30;76.10;;;;;;5073792;28;20378;-87
2022/10/03 01:20:06;;;;;;;2.00;0.93;;;20.60;75.40;;;;;;5073794;28;20370;-87
2022/10/03 01:22:36;;;;;;;1.60;0.73;;;21.30;69.90;;;;;;5073642;28;20402;-86
2022/10/03 01:25:32;;;;;;;4.45;1.30;;;21.40;68.50;;;;;;5055499;28;20374;-85
2022/10/03 01:31:19;;;;;;;4.13;1.20;;;22.50;66.10;;;;;;5072972;28;20450;-85
2022/10/03 01:34:16;;;;;;;1.63;0.80;;;23.60;61.30;;;;;;5073416;28;20366;-86
2022/10/03 01:37:01;;;;;;;1.38;0.80;;;24.40;59.50;;;;;;5072987;28;20461;-86
2022/10/03 01:39:46;;;;;;;0.82;0.60;;;25.00;55.20;;;;;;5073683;28;20730;-84
2022/10/03 01:42:41;;;;;;;1.30;0.68;;;24.60;57.50;;;;;;5073222;28;20394;-87
2022/10/03 01:45:33;;;;;;;2.42;0.70;;;24.90;53.50;;;;;;5072664;28;20402;-88
2022/10/03 01:48:13;;;;;;;2.45;0.80;;;23.50;54.00;;;;;;5054997;28;20807;-86
2022/10/03 01:51:04;;;;;;;2.55;0.90;;;23.40;54.50;;;;;;5073316;28;20397;-89
2022/10/03 01:53:50;;;;;;;0.70;0.70;;;23.60;55.50;;;;;;5073149;28;20861;-86
2022/10/03 01:56:35;;;;;;;1.55;0.70;;;23.40;55.00;;;;;;5073675;28;20362;-87
2022/10/03 01:59:13;;;;;;;1.23;0.70;;;22.90;55.90;;;;;;5073111;28;20385;-84
2022/10/03 02:01:43;;;;;;;2.13;0.83;;;23.50;55.50;;;;;;5055031;28;20819;-85
2022/10/03 02:04:22;;;;;;;1.00;0.70;;;24.10;55.40;;;;;;5073840;28;20382;-86
2022/10/03 02:06:52;;;;;;;0.80;0.60;;;25.20;52.50;;;;;;5073686;28;20354;-86
2022/10/03 02:09:37;;;;;;;1.30;0.60;;;26.30;49.90;;;;;;5073463;28;20457;-85
2022/10/03 02:12:21;;;;;;;1.20;0.70;;;27.70;48.00;;;;;;5073193;28;20831;-87
2022/10/03 02:15:13;;;;;;;0.95;0.57;;;28.70;45.00;;;;;;5073113;28;20354;-86
2022/10/03 02:17:53;;;;;;;1.13;0.77;;;28.90;43.60;;;;;;5072572;28;20416;-86
2022/10/03 02:20:38;;;;;;;1.10;0.70;;;27.80;45.50;;;;;;5072882;28;20803;-85
2022/10/03 02:23:32;;;;;;;1.55;0.70;;;28.30;44.70;;;;;;5054357;28;20406;-86
2022/10/03 02:26:53;;;;;;;0.75;0.70;;;28.70;43.00;;;;;;5072575;28;20365;-87
2022/10/03 02:29:48;;;;;;;1.85;1.00;;;29.10;43.20;;;;;;4991161;28;20387;-87
2022/10/03 02:32:51;;;;;;;2.88;1.67;;;29.20;45.20;;;;;;4991260;28;20869;-85
2022/10/03 02:35:30;;;;;;;4.50;1.30;;;28.90;46.40;;;;;;4991384;28;20464;-88
2022/10/03 02:38:28;;;;;;;2.67;1.27;;;28.80;44.70;;;;;;4991170;28;20769;-86
2022/10/03 02:41:05;;;;;;;2.55;1.30;;;27.90;45.60;;;;;;4992950;28;20420;-86
2022/10/03 02:44:02;;;;;;;2.13;1.30;;;27.60;48.10;;;;;;4994561;28;20415;-86
2022/10/03 02:46:57;;;;;;;4.03;1.60;;;27.20;47.00;;;;;;4995767;28;20393;-84
2022/10/03 02:49:43;;;;;;;7.88;2.00;;;26.90;48.90;;;;;;4994254;28;20434;-84
2022/10/03 02:52:46;;;;;;;3.50;1.58;;;27.70;47.90;;;;;;4992705;28;20379;-85
2022/10/03 02:55:31;;;;;;;13.48;3.30;;;26.90;47.50;;;;;;4991213;28;20384;-87
2022/10/03 02:58:18;;;;;;;15.63;4.53;;;26.50;48.90;;;;;;4991524;28;20388;-86
2022/10/03 03:01:12;;;;;;;6.10;2.30;;;26.80;49.50;;;;;;4974467;28;20874;-85
2022/10/03 03:04:01;;;;;;;10.98;3.67;;;27.60;46.80;;;;;;5043744;28;20476;-84
2022/10/03 03:06:31;;;;;;;1.93;1.37;;;28.70;46.50;;;;;;5072522;28;20449;-84
2022/10/03 03:09:29;;;;;;;3.17;1.70;;;29.20;44.00;;;;;;5073720;28;20461;-87
2022/10/03 03:12:24;;;;;;;2.75;1.33;;;27.50;45.90;;;;;;5057108;28;20386;-85
2022/10/03 03:15:09;;;;;;;3.35;1.40;;;26.20;45.80;;;;;;5076740;28;20373;-85
2022/10/03 03:18:10;;;;;;;2.20;1.52;;;24.70;47.90;;;;;;5078932;28;20449;-85
2022/10/03 03:21:07;;;;;;;2.27;1.30;;;23.90;49.60;;;;;;5082523;28;20358;-85
2022/10/03 03:24:04;;;;;;;2.73;1.60;;;24.00;49.80;;;;;;5083043;28;20401;-84
2022/10/03 03:26:50;;;;;;;2.78;1.50;;;25.20;50.00;;;;;;5079778;28;20366;-85
2022/10/03 03:29:22;;;;;;;4.28;1.90;;;26.70;46.50;;;;;;5075802;28;20405;-85
2022/10/03 03:32:04;;;;;;;2.55;1.50;;;27.60;46.10;;;;;;5076341;28;20714;-85
2022/10/03 03:34:35;;;;;;;2.20;1.35;;;28.40;44.00;;;;;;5075693;28;20370;-87
2022/10/03 03:37:25;;;;;;;3.20;1.38;;;27.80;44.10;;;;;;5057532;28;20382;-88
2022/10/03 03:40:22;;;;;;;4.80;1.80;;;26.80;45.40;;;;;;5075388;28;20500;-88
2022/10/03 03:43:07;;;;;;;3.75;1.20;;;26.70;45.80;;;;;;5075351;28;20881;-87
2022/10/03 03:45:45;;;;;;;8.10;1.80;;;26.50;46.30;;;;;;5075431;28;20396;-87
2022/10/03 03:48:51;;;;;;;1.83;1.30;;;26.10;47.10;;;;;;5075651;28;20367;-89
2022/10/03 03:51:38;;;;;;;1.65;1.25;;;25.60;46.00;;;;;;5075447;28;20385;-87
2022/10/03 03:54:30;;;;;;;2.00;1.30;;;25.50;45.90;;;;;;5075169;28;20729;-86
2022/10/03 03:57:25;;;;;;;2.65;1.20;;;25.30;48.00;;;;;;5075299;28;20366;-83
2022/10/03 04:00:22;;;;;;;3.28;1.40;;;24.90;49.40;;;;;;5075216;28;20396;-86
2022/10/03 04:03:11;;;;;;;2.70;1.30;;;24.60;50.90;;;;;;5056967;28;20406;-82
2022/10/03 04:05:50;;;;;;;2.03;1.20;;;24.60;51.10;;;;;;5075316;28;20906;-86
2022/10/03 04:08:44;;;;;;;2.83;1.30;;;24.80;50.30;;;;;;5074664;28;20396;-85
2022/10/03 04:11:32;;;;;;;2.00;1.10;;;25.50;49.10;;;;;;5056383;28;20872;-82
2022/10/03 04:14:14;;;;;;;1.60;0.90;;;25.70;47.60;;;;;;5074612;28;20370;-84
2022/10/03 04:20:18;;;;;;;2.83;1.30;;;26.30;47.70;;;;;;5074471;28;20369;-86
2022/10/03 04:23:18;;;;;;;1.88;1.20;;;27.40;47.60;;;;;;5073924;28;20486;-85
2022/10/03 04:26:01;;;;;;;2.25;1.15;;;29.40;43.40;;;;;;5073952;28;20910;-85
2022/10/03 04:28:33;;;;;;;2.05;1.13;;;29.70;40.90;;;;;;5074434;28;20396;-85
2022/10/03 04:31:13;;;;;;;2.30;1.17;;;28.90;42.30;;;;;;5074660;28;20362;-85
2022/10/03 04:33:43;;;;;;;1.55;1.10;;;28.80;42.90;;;;;;5074448;28;20371;-87
2022/10/03 04:36:48;;;;;;;2.10;1.10;;;28.20;43.90;;;;;;5074517;28;20369;-85
2022/10/03 04:39:39;;;;;;;1.30;1.17;;;28.00;45.10;;;;;;5070120;28;20938;-84
2022/10/03 04:42:13;;;;;;;2.55;1.20;;;28.50;45.00;;;;;;5073903;28;20481;-84
2022/10/03 04:45:19;;;;;;;2.70;1.10;;;29.20;44.30;;;;;;5073684;28;20886;-87
2022/10/03 04:48:05;;;;;;;2.30;1.02;;;29.20;44.50;;;;;;4992106;28;20476;-83
2022/10/03 04:50:44;;;;;;;1.77;1.20;;;29.50;42.50;;;;;;4992249;28;20400;-84
2022/10/03 04:53:45;;;;;;;2.03;1.33;;;28.90;42.00;;;;;;4992621;28;20381;-84
2022/10/03 04:56:21;;;;;;;3.33;1.60;;;28.50;43.70;;;;;;4934238;29;20739;-84
2022/10/03 04:59:14;;;;;;;1.83;1.37;;;27.70;43.10;;;;;;4934506;29;20397;-84
2022/10/03 05:02:03;;;;;;;2.35;1.40;;;26.60;44.70;;;;;;4934611;29;20406;-87
2022/10/03 05:04:38;;;;;;;2.13;1.38;;;26.20;47.10;;;;;;4934423;29;20475;-86
2022/10/03 05:07:11;;;;;;;2.47;0.93;;;27.00;45.30;;;;;;4934355;29;20468;-87
2022/10/03 05:10:04;;;;;;;2.20;1.10;;;28.50;43.90;;;;;;4935039;29;20607;-86
2022/10/03 05:12:39;;;;;;;1.50;1.00;;;29.30;42.70;;;;;;4934572;29;20389;-83
2022/10/03 05:15:19;;;;;;;1.90;1.20;;;30.10;41.10;;;;;;4934631;29;20421;-86
2022/10/03 05:18:13;;;;;;;2.42;1.30;;;29.80;42.40;;;;;;4934652;29;20406;-85
2022/10/03 05:21:07;;;;;;;1.55;0.80;;;30.30;42.60;;;;;;4934319;29;20428;-83
2022/10/03 05:24:02;;;;;;;1.33;1.00;;;30.40;41.30;;;;;;4984044;28;20435;-83
2022/10/03 05:26:49;;;;;;;1.33;0.80;;;28.60;43.90;;;;;;5011834;28;20446;-87
2022/10/03 05:29:40;;;;;;;1.83;0.93;;;27.70;44.00;;;;;;5011079;28;20446;-85
2022/10/03 05:32:22;;;;;;;1.70;1.00;;;26.30;45.10;;;;;;5018560;28;20759;-85
2022/10/03 05:35:19;;;;;;;1.85;1.00;;;25.50;47.80;;;;;;5072283;28;20399;-85
2022/10/03 05:37:49;;;;;;;2.15;0.90;;;24.70;48.70;;;;;;5055057;28;20375;-87
2022/10/03 05:40:25;;;;;;;2.70;0.90;;;23.70;50.60;;;;;;5073117;28;20374;-86
2022/10/03 05:42:52;;;;;;;1.90;1.10;;;23.00;51.90;;;;;;5073441;28;20403;-89
2022/10/03 05:45:46;;;;;;;2.00;1.10;;;22.60;52.90;;;;;;5073033;28;20390;-88
2022/10/03 05:48:31;;;;;;;12.47;2.70;;;22.30;53.90;;;;;;5073225;28;20863;-88
2022/10/03 05:51:19;;;;;;;1.67;1.13;;;22.10;54.90;;;;;;5056822;28;20861;-88
2022/10/03 05:53:58;;;;;;;2.15;0.95;;;23.00;53.20;;;;;;5076835;28;20375;-92
2022/10/03 05:56:56;;;;;;;2.10;1.00;;;24.40;51.80;;;;;;5078679;28;20377;-87
2022/10/03 05:59:58;;;;;;;263.13;20.73;;;25.70;50.20;;;;;;5057726;28;20379;-86
2022/10/03 06:02:34;;;;;;;13.70;2.40;;;;;;;;;;5073377;28;20432;-85
2022/10/03 06:05:07;;;;;;;4.78;1.27;;;25.40;47.10;;;;;;5073262;28;20799;-87
2022/10/03 06:07:51;;;;;;;2.33;0.88;;;26.60;48.10;;;;;;5073539;28;20402;-86
2022/10/03 06:10:50;;;;;;;0.90;0.80;;;27.70;46.10;;;;;;5072920;28;20471;-86
2022/10/03 06:13:20;;;;;;;2.47;0.95;;;28.60;44.20;;;;;;5072766;28;20432;-82
2022/10/03 06:15:58;;;;;;;3.78;1.20;;;29.70;41.10;;;;;;5073029;28;20563;-83
2022/10/03 06:18:48;;;;;;;2.15;1.20;;;29.60;41.40;;;;;;5072423;28;20465;-83
2022/10/03 06:21:55;;;;;;;1.60;1.10;;;29.30;41.90;;;;;;5071635;28;20385;-83
2022/10/03 06:24:42;;;;;;;2.47;1.00;;;28.10;43.20;;;;;;5072545;28;20378;-84
2022/10/03 06:27:21;;;;;;;2.17;1.00;;;27.00;45.40;;;;;;5072581;28;20854;-83
2022/10/03 06:29:59;;;;;;;2.15;1.30;;;26.30;46.20;;;;;;5073060;28;20366;-85
2022/10/03 06:32:43;;;;;;;5.30;2.00;;;25.30;47.50;;;;;;5072712;28;20803;-85
2022/10/03 06:35:36;;;;;;;2.78;1.33;;;24.40;48.40;;;;;;5072875;28;20365;-86
2022/10/03 06:38:12;;;;;;;2.08;1.10;;;23.50;50.90;;;;;;4991383;28;20748;-86
2022/10/03 06:41:14;;;;;;;1.48;1.00;;;22.70;52.10;;;;;;4991599;28;20404;-86
2022/10/03 06:43:55;;;;;;;1.85;0.90;;;22.00;53.20;;;;;;4991441;28;20404;-86
2022/10/03 06:46:52;;;;;;;2.00;1.08;;;21.60;55.00;;;;;;5010564;28;20533;-86
2022/10/03 06:49:42;;;;;;;2.00;1.02;;;21.30;55.60;;;;;;5014859;28;20466;-87
2022/10/03 06:52:46;;;;;;;1.52;1.02;;;20.10;54.10;;;;;;5014848;28;20446;-85
2022/10/03 06:55:50;;;;;;;1.35;0.90;;;22.30;53.60;;;;;;5014949;28;20387;-84
2022/10/03 06:58:41;;;;;;;1.53;0.80;;;22.40;52.30;;;;;;5020949;28;20391;-86
2022/10/03 07:04:38;;;;;;;2.33;1.20;;;22.20;53.40;;;;;;5015582;28;20418;-88
2022/10/03 07:07:29;;;;;;;1.63;1.10;;;22.30;52.90;;;;;;5015342;28;20387;-87
2022/10/03 07:10:25;;;;;;;2.83;1.10;;;23.00;53.80;;;;;;5014774;28;20458;-87
2022/10/03 07:13:14;;;;;;;2.35;0.93;;;23.30;53.10;;;;;;5015085;28;20402;-88
2022/10/03 07:16:17;;;;;;;1.50;0.80;;;23.20;53.40;;;;;;5068798;28;20377;-86
2022/10/03 07:19:34;;;;;;;1.65;0.82;;;23.40;54.30;;;;;;5077265;28;20872;-86
2022/10/03 07:22:25;;;;;;;1.52;0.80;;;23.40;54.50;;;;;;5015084;28;20454;-90
2022/10/03 07:25:08;;;;;;;2.00;0.63;;;;;;;;;;5015570;28;20708;-87
2022/10/03 07:28:01;;;;;;;2.20;1.20;;;22.90;55.10;;;;;;5018441;28;20418;-86
2022/10/03 07:30:45;;;;;;;5.15;2.22;;;21.30;58.10;;;;;;5015853;28;20466;-85
2022/10/03 07:34:07;;;;;;;4.97;2.20;;;21.10;58.10;;;;;;5001927;28;20747;-87
2022/10/03 07:39:46;;;;;;;1.43;1.00;;;20.20;61.90;;;;;;5014680;28;20489;-83
2022/10/03 07:42:45;;;;;;;2.45;0.90;;;19.70;63.20;;;;;;5014696;28;20434;-83
2022/10/03 07:45:21;;;;;;;2.72;1.00;;;19.30;65.20;;;;;;4998212;28;20395;-86
2022/10/03 07:48:18;;;;;;;3.00;1.02;;;18.80;65.60;;;;;;5013568;28;20739;-83
2022/10/03 07:51:16;;;;;;;2.53;1.17;;;18.40;66.90;;;;;;4997254;28;20438;-84
2022/10/03 07:53:49;;;;;;;3.13;1.27;;;18.20;68.70;;;;;;5013020;28;20380;-86
2022/10/03 07:56:31;;;;;;;2.90;1.20;;;17.70;70.30;;;;;;5013956;28;20379;-85
2022/10/03 07:59:25;;;;;;;3.92;1.00;;;17.60;70.80;;;;;;5075583;28;20696;-85
2022/10/03 08:01:58;;;;;;;5.45;0.90;;;17.40;70.60;;;;;;5075841;28;20402;-88
2022/10/03 08:05:03;;;;;;;2.77;1.00;;;17.20;72.30;;;;;;5075622;28;20424;-85
2022/10/03 08:08:08;;;;;;;3.33;1.15;;;17.10;72.90;;;;;;5014185;28;20466;-86
2022/10/03 08:11:13;;;;;;;2.80;1.13;;;16.80;74.70;;;;;;4997295;28;20532;-83
2022/10/03 08:14:00;;;;;;;2.40;1.00;;;18.20;77.40;;;;;;5014527;28;20403;-85
2022/10/03 08:17:05;;;;;;;2.20;1.10;;;16.60;78.50;;;;;;5015803;28;20863;-85
2022/10/03 08:20:01;;;;;;;3.10;1.23;;;16.60;80.80;;;;;;4996816;28;20526;-84
2022/10/03 08:22:46;;;;;;;2.35;1.10;;;16.40;83.20;;;;;;4992007;28;20405;-84
2022/10/03 08:25:51;;;;;;;2.08;1.00;;;16.30;84.20;;;;;;4980339;28;20411;-85
2022/10/03 08:28:50;;;;;;;3.70;0.90;;;16.20;86.60;;;;;;4996760;28;20389;-84
2022/10/03 08:31:35;;;;;;;3.75;1.00;;;16.30;88.60;;;;;;4997496;28;20769;-86
2022/10/03 08:34:23;;;;;;;2.17;1.08;;;16.10;90.20;;;;;;4995019;28;20385;-84
2022/10/03 08:37:27;;;;;;;2.80;0.93;;;16.00;91.40;;;;;;4995846;28;20400;-85
2022/10/03 08:40:43;;;;;;;2.50;1.20;;;16.00;91.40;;;;;;5008490;28;20389;-83
2022/10/03 08:43:49;;;;;;;3.10;0.90;;;15.90;91.80;;;;;;5026386;28;20469;-84
2022/10/03 08:46:46;;;;;;;2.30;0.90;;;15.90;91.70;;;;;;5046286;28;20488;-84
2022/10/03 08:49:16;;;;;;;3.55;1.00;;;15.80;92.10;;;;;;5048227;28;20405;-84
2022/10/03 08:52:27;;;;;;;2.83;1.00;;;15.80;92.20;;;;;;5055039;28;20396;-85
2022/10/03 08:55:24;;;;;;;3.38;1.17;;;15.80;92.90;;;;;;4995422;28;20517;-85
2022/10/03 08:58:21;;;;;;;2.15;1.00;;;15.80;93.40;;;;;;5014869;28;20460;-86
2022/10/03 09:01:07;;;;;;;1.88;0.90;;;15.70;93.60;;;;;;5015998;28;20397;-83
2022/10/03 09:03:55;;;;;;;2.80;1.60;;;15.70;93.60;;;;;;5015145;28;20443;-83
2022/10/03 09:06:52;;;;;;;3.00;1.10;;;15.70;94.80;;;;;;4996564;28;20392;-84
2022/10/03 09:09:43;;;;;;;2.97;1.27;;;15.60;94.50;;;;;;4996153;28;20437;-85
2022/10/03 09:12:22;;;;;;;3.08;1.60;;;15.50;94.70;;;;;;4998863;28;20384;-85
2022/10/03 09:15:10;;;;;;;3.65;2.10;;;15.50;95.30;;;;;;4998476;28;20384;-84
2022/10/03 09:17:59;;;;;;;5.75;2.40;;;15.40;96.20;;;;;;4996355;28;20456;-84
2022/10/03 09:20:34;;;;;;;3.63;2.13;;;15.40;96.60;;;;;;4993218;28;21538;-84
2022/10/03 09:23:33;;;;;;;3.42;1.80;;;15.30;96.70;;;;;;4994884;28;20508;-84
2022/10/03 09:26:18;;;;;;;3.08;1.27;;;15.20;96.80;;;;;;4993177;28;20377;-83
2022/10/03 09:29:13;;;;;;;3.03;1.30;;;15.10;97.40;;;;;;4993046;28;20384;-83
2022/10/03 09:31:59;;;;;;;1.77;1.00;;;15.00;97.70;;;;;;5054928;28;20438;-83
2022/10/03 09:34:55;;;;;;;5.35;1.00;;;14.90;97.60;;;;;;5073958;28;20362;-83
2022/10/03 09:37:40;;;;;;;4.00;1.17;;;14.90;97.80;;;;;;5011500;28;20379;-84
2022/10/03 09:40:39;;;;;;;2.13;0.85;;;14.90;98.30;;;;;;4994880;28;20865;-82
2022/10/03 09:43:19;;;;;;;2.95;1.25;;;14.90;97.60;;;;;;5011334;28;20410;-83
2022/10/03 09:45:55;;;;;;;3.80;1.00;;;14.80;98.30;;;;;;5011345;28;20487;-83
2022/10/03 09:48:45;;;;;;;2.13;0.90;;;14.70;98.80;;;;;;5012147;28;20487;-83
2022/10/03 09:51:24;;;;;;;3.07;1.00;;;14.70;98.60;;;;;;4995139;28;20388;-83
2022/10/03 09:54:15;;;;;;;2.72;1.10;;;14.70;99.10;;;;;;4993645;28;20385;-84
2022/10/03 09:56:55;;;;;;;1.97;1.00;;;14.60;98.90;;;;;;4992792;28;20443;-84
2022/10/03 09:59:28;;;;;;;3.38;1.10;;;14.60;99.20;;;;;;4992971;28;20806;-84
2022/10/03 10:02:22;;;;;;;3.53;1.50;;;14.50;99.90;;;;;;4994023;28;20400;-84
2022/10/03 10:04:57;;;;;;;4.32;1.70;;;14.50;99.90;;;;;;4995655;28;20381;-84
2022/10/03 10:07:51;;;;;;;5.27;2.10;;;14.40;99.90;;;;;;4996336;28;20377;-85
2022/10/03 10:10:48;;;;;;;2.60;1.90;;;14.40;99.90;;;;;;4992061;28;20408;-82
2022/10/03 10:13:29;;;;;;;3.95;1.83;;;14.30;99.90;;;;;;5005079;28;20380;-83
2022/10/03 10:16:17;;;;;;;3.55;1.83;;;14.30;99.90;;;;;;5035778;28;20386;-84
2022/10/03 10:19:12;;;;;;;8.73;4.43;;;14.30;99.90;;;;;;5034668;28;20799;-84
2022/10/03 10:21:44;;;;;;;4.43;2.10;;;14.20;99.90;;;;;;5036963;28;20373;-83
2022/10/03 10:24:45;;;;;;;5.57;2.10;;;14.20;99.90;;;;;;5036298;28;20396;-85
2022/10/03 10:27:37;;;;;;;4.85;2.00;;;14.10;99.90;;;;;;5041843;28;20392;-83
2022/10/03 10:30:35;;;;;;;3.72;1.95;;;14.10;99.90;;;;;;5081973;28;20362;-84
2022/10/03 10:33:23;;;;;;;3.05;1.60;;;14.00;99.90;;;;;;5073394;28;20370;-84
2022/10/03 10:36:23;;;;;;;3.47;1.27;;;14.00;99.90;;;;;;5077075;28;20377;-84
2022/10/03 10:39:08;;;;;;;2.70;1.10;;;14.10;99.90;;;;;;5076995;28;20441;-85
2022/10/03 10:41:53;;;;;;;2.08;1.10;;;14.10;99.90;;;;;;5078972;28;20370;-84
2022/10/03 10:44:57;;;;;;;4.67;1.23;;;14.10;99.90;;;;;;5078023;28;20710;-83
2022/10/03 10:47:45;;;;;;;3.15;1.50;;;14.00;99.90;;;;;;5058585;28;20396;-84
2022/10/03 10:50:12;;;;;;;5.22;1.40;;;13.80;99.90;;;;;;5077219;28;20440;-85
2022/10/03 10:53:16;;;;;;;3.05;1.58;;;13.70;99.90;;;;;;5076481;28;20388;-84
2022/10/03 10:56:35;;;;;;;2.80;1.33;;;12.40;99.90;;;;;;5057888;28;20845;-85
2022/10/03 10:59:49;;;;;;;3.67;1.30;;;13.60;99.90;;;;;;5037304;28;20744;-83
2022/10/03 11:02:25;;;;;;;2.97;1.40;;;13.60;99.90;;;;;;5076033;28;20888;-84
2022/10/03 11:05:12;;;;;;;4.53;1.77;;;13.60;99.90;;;;;;5076049;28;20870;-83
2022/10/03 11:08:05;;;;;;;3.22;1.90;;;13.50;99.90;;;;;;5076137;28;20385;-84
2022/10/03 11:10:56;;;;;;;3.53;1.52;;;13.40;99.90;;;;;;5079396;28;20369;-83
2022/10/03 11:14:02;;;;;;;3.50;1.70;;;13.30;99.90;;;;;;5063626;28;20897;-84
2022/10/03 11:17:16;;;;;;;2.97;1.70;;;13.30;99.90;;;;;;5076536;28;20431;-84
2022/10/03 11:20:19;;;;;;;3.28;1.92;;;13.20;99.90;;;;;;4996470;28;20469;-85
2022/10/03 11:23:19;;;;;;;6.90;1.73;;;13.20;99.90;;;;;;5003766;28;20416;-83
2022/10/03 11:25:49;;;;;;;3.08;2.03;;;13.10;99.90;;;;;;5004379;28;20411;-82
2022/10/03 11:28:20;;;;;;;4.80;2.00;;;13.10;99.90;;;;;;5002428;28;20385;-83
2022/10/03 11:31:26;;;;;;;3.72;1.98;;;13.10;99.90;;;;;;4999960;28;20384;-84
2022/10/03 11:34:27;;;;;;;5.55;1.80;;;13.10;99.90;;;;;;4995227;28;20381;-84
2022/10/03 11:37:18;;;;;;;4.43;1.70;;;13.10;99.90;;;;;;4995391;28;20481;-85
2022/10/03 11:40:00;;;;;;;2.40;1.50;;;13.00;99.90;;;;;;4996739;28;20380;-85
2022/10/03 11:42:27;;;;;;;4.03;1.60;;;13.10;99.90;;;;;;4997168;28;20504;-83
2022/10/03 11:45:15;;;;;;;3.03;1.65;;;12.90;99.90;;;;;;5002779;28;20395;-84
2022/10/03 11:48:26;;;;;;;5.03;1.75;;;13.00;99.90;;;;;;5015424;28;20382;-84
2022/10/03 11:50:59;;;;;;;2.70;1.70;;;13.00;99.90;;;;;;4979715;28;20386;-84
2022/10/03 11:53:43;;;;;;;3.47;1.95;;;13.00;99.90;;;;;;4979150;28;20386;-84
2022/10/03 11:56:28;;;;;;;4.05;1.70;;;13.00;99.90;;;;;;5021479;28;20392;-85
2022/10/03 11:59:30;;;;;;;4.10;1.77;;;13.00;99.90;;;;;;5051527;28;20369;-84
2022/10/03 12:02:36;;;;;;;3.28;1.65;;;13.10;99.90;;;;;;5041062;28;20449;-84
2022/10/03 12:05:32;;;;;;;3.67;1.70;;;13.20;99.90;;;;;;5038062;28;20393;-84
2022/10/03 12:11:16;;;;;;;3.20;1.77;;;13.30;99.90;;;;;;5035649;28;20411;-82
2022/10/03 12:14:19;;;;;;;3.05;1.60;;;13.20;99.90;;;;;;5034716;28;20444;-83
2022/10/03 12:17:14;;;;;;;4.32;1.80;;;13.20;99.90;;;;;;5035425;28;20416;-83
2022/10/03 12:20:14;;;;;;;4.53;1.70;;;13.20;99.90;;;;;;5032742;28;20370;-83
2022/10/03 12:23:06;;;;;;;2.92;1.55;;;13.10;99.90;;;;;;5032878;28;20401;-83
2022/10/03 12:25:37;;;;;;;5.95;1.60;;;13.00;99.90;;;;;;5036181;28;20366;-83
2022/10/03 12:28:25;;;;;;;4.53;1.60;;;13.00;99.90;;;;;;5070803;28;20737;-83
2022/10/03 12:31:03;;;;;;;2.72;1.30;;;13.00;99.90;;;;;;5079697;28;20362;-82
2022/10/03 12:33:41;;;;;;;3.55;1.40;;;13.00;99.90;;;;;;5078749;28;20359;-83
2022/10/03 12:36:16;;;;;;;2.90;1.50;;;13.00;99.90;;;;;;5075041;28;20409;-83
2022/10/03 12:38:58;;;;;;;2.92;1.40;;;13.00;99.90;;;;;;5074975;28;20369;-82
2022/10/03 12:41:41;;;;;;;3.72;1.30;;;13.00;99.90;;;;;;5074960;28;20370;-83
2022/10/03 12:44:36;;;;;;;3.15;1.45;;;13.00;99.90;;;;;;5073960;28;20402;-83
2022/10/03 12:47:21;;;;;;;3.78;1.52;;;13.00;99.90;;;;;;5074250;28;20382;-82
2022/10/03 12:50:16;;;;;;;2.92;1.30;;;13.00;99.90;;;;;;5074243;28;20363;-83
2022/10/03 12:53:05;;;;;;;2.95;1.33;;;12.90;99.90;;;;;;5074366;28;20887;-83
2022/10/03 12:55:37;;;;;;;4.30;1.50;;;12.90;99.90;;;;;;5074320;28;20374;-84
2022/10/03 12:58:25;;;;;;;2.83;1.30;;;12.80;99.90;;;;;;5073767;28;20462;-83
2022/10/03 13:01:33;;;;;;;2.45;1.50;;;12.70;99.90;;;;;;5074161;28;20366;-82
2022/10/03 13:04:07;;;;;;;3.78;1.30;;;12.60;99.90;;;;;;4992933;28;20480;-83
2022/10/03 13:06:58;;;;;;;2.78;1.40;;;12.50;99.90;;;;;;4992387;28;20490;-83
2022/10/03 13:09:46;;;;;;;3.00;1.30;;;12.50;99.90;;;;;;4993810;28;20853;-83
2022/10/03 13:12:38;;;;;;;2.83;1.30;;;12.50;99.90;;;;;;4992875;28;20747;-83
2022/10/03 13:15:38;;;;;;;2.95;1.40;;;12.40;99.90;;;;;;4992637;28;20389;-83
2022/10/03 13:18:17;;;;;;;3.03;1.38;;;12.40;99.90;;;;;;4992761;28;20369;-83
2022/10/03 13:21:07;;;;;;;2.67;1.40;;;12.30;99.90;;;;;;4992407;28;20440;-83
2022/10/03 13:23:45;;;;;;;4.72;1.40;;;12.20;99.90;;;;;;4975742;28;20414;-83
2022/10/03 13:26:38;;;;;;;3.97;1.50;;;12.20;99.90;;;;;;4992037;28;20415;-83
2022/10/03 13:29:31;;;;;;;2.22;1.40;;;12.10;99.90;;;;;;4991261;28;20810;-83
2022/10/03 13:32:07;;;;;;;2.35;1.30;;;12.00;99.90;;;;;;4991970;28;20369;-83
2022/10/03 13:34:56;;;;;;;3.92;1.50;;;12.00;99.90;;;;;;4991773;28;20999;-84
2022/10/03 13:37:52;;;;;;;3.17;1.40;;;11.90;99.90;;;;;;4991945;28;20392;-83
2022/10/03 13:40:20;;;;;;;3.03;1.38;;;11.80;99.90;;;;;;5020366;28;20386;-83
2022/10/03 13:42:52;;;;;;;4.18;1.50;;;11.70;99.90;;;;;;5072766;28;20386;-83
2022/10/03 13:45:25;;;;;;;2.03;1.30;;;11.80;99.90;;;;;;5072521;28;20394;-83
2022/10/03 13:48:19;;;;;;;3.33;1.50;;;11.80;99.90;;;;;;5072734;28;20369;-83
2022/10/03 13:51:00;;;;;;;4.03;1.35;;;11.70;99.90;;;;;;5072683;28;20382;-83
2022/10/03 13:53:46;;;;;;;3.20;1.40;;;11.70;99.90;;;;;;5072534;28;20459;-82
2022/10/03 13:56:30;;;;;;;2.03;1.20;;;11.60;99.90;;;;;;5072751;28;20435;-83
2022/10/03 13:59:22;;;;;;;2.78;1.30;;;11.60;99.90;;;;;;5072679;28;20372;-83
2022/10/03 14:01:55;;;;;;;4.07;1.50;;;11.50;99.90;;;;;;5054557;28;20374;-83
2022/10/03 14:04:35;;;;;;;2.28;1.60;;;11.50;99.90;;;;;;5072360;28;20378;-83
2022/10/03 14:07:21;;;;;;;3.37;2.00;;;11.50;99.90;;;;;;5072677;28;20371;-83
2022/10/03 14:10:02;;;;;;;6.75;2.20;;;11.40;99.90;;;;;;5072709;28;20370;-83
2022/10/03 14:12:39;;;;;;;7.80;2.50;;;11.40;99.90;;;;;;5072526;28;20884;-83
2022/10/03 14:15:24;;;;;;;4.38;2.40;;;11.30;99.90;;;;;;5072449;28;20382;-83
2022/10/03 14:18:32;;;;;;;5.10;2.60;;;11.30;99.90;;;;;;5073173;28;20370;-84
2022/10/03 14:21:11;;;;;;;6.80;2.70;;;11.30;99.90;;;;;;5072894;28;20729;-84
2022/10/03 14:23:49;;;;;;;5.30;2.58;;;11.20;99.90;;;;;;5072551;28;20800;-85
2022/10/03 14:26:37;;;;;;;6.88;2.67;;;11.20;99.90;;;;;;5072980;28;20910;-84
2022/10/03 14:29:32;;;;;;;7.90;2.30;;;11.10;99.90;;;;;;5072600;28;20366;-85
2022/10/03 14:32:21;;;;;;;6.22;2.42;;;11.10;99.90;;;;;;5072584;28;20371;-84
2022/10/03 14:34:57;;;;;;;4.95;2.13;;;11.00;99.90;;;;;;5072278;28;20901;-84
2022/10/03 14:37:30;;;;;;;4.72;2.38;;;11.00;99.90;;;;;;5072306;28;20423;-84
2022/10/03 14:40:19;;;;;;;5.07;2.30;;;11.00;99.90;;;;;;5072881;28;20358;-84
2022/10/03 14:42:58;;;;;;;4.13;2.20;;;10.90;99.90;;;;;;5072092;28;20902;-84
2022/10/03 14:45:29;;;;;;;3.97;2.38;;;10.90;99.90;;;;;;5072217;28;20390;-84
2022/10/03 14:48:04;;;;;;;5.20;2.70;;;10.90;99.90;;;;;;5072205;28;20369;-83
2022/10/03 14:50:32;;;;;;;4.38;2.50;;;10.80;99.90;;;;;;5072736;28;20808;-83
2022/10/03 14:53:09;;;;;;;3.97;2.45;;;10.80;99.90;;;;;;5072040;28;20389;-83
2022/10/03 14:56:10;;;;;;;4.55;2.70;;;10.80;99.90;;;;;;5054660;28;20367;-83